createdAt,value
2019-01-16T00:00:56.228Z,3.70
2019-01-16T00:03:32.631Z,2.90
2019-01-16T00:06:19.611Z,2.77
2019-01-16T00:09:08.178Z,2.90
2019-01-16T00:11:55.146Z,2.47
2019-01-16T00:14:25.762Z,3.00
2019-01-16T00:17:14.547Z,3.00
2019-01-16T00:19:47.644Z,3.23
2019-01-16T00:22:18.237Z,3.00
2019-01-16T00:24:48.842Z,3.63
2019-01-16T00:27:22.154Z,2.70
2019-01-16T00:29:55.674Z,2.87
2019-01-16T00:32:26.295Z,2.63
2019-01-16T00:35:11.702Z,3.23
2019-01-16T00:37:54.525Z,3.17
2019-01-16T00:40:25.152Z,3.13
2019-01-16T00:43:04.593Z,3.00
2019-01-16T00:45:35.223Z,3.20
2019-01-16T00:48:08.546Z,3.03
2019-01-16T00:50:48.106Z,2.67
2019-01-16T00:53:30.798Z,2.80
2019-01-16T00:56:01.407Z,2.90
2019-01-16T00:58:34.762Z,2.63
2019-01-16T01:01:05.877Z,3.20
2019-01-16T01:03:39.129Z,2.87
2019-01-16T01:06:26.279Z,3.00
2019-01-16T01:08:59.664Z,3.17
2019-01-16T01:11:36.247Z,3.10
2019-01-16T01:14:06.936Z,3.07
2019-01-16T01:16:37.603Z,3.53
2019-01-16T01:19:14.124Z,3.90
2019-01-16T01:21:44.730Z,3.40
2019-01-16T01:24:31.457Z,4.30
2019-01-16T01:27:10.947Z,3.83
2019-01-16T01:29:47.350Z,3.40
2019-01-16T01:32:17.958Z,3.57
2019-01-16T01:34:51.252Z,3.37
2019-01-16T01:37:24.619Z,3.23
2019-01-16T01:39:57.993Z,3.27
2019-01-16T01:42:44.767Z,3.23
2019-01-16T01:45:25.547Z,3.03
2019-01-16T01:48:02.088Z,3.00
2019-01-16T01:50:32.694Z,2.77
2019-01-16T01:53:06.276Z,3.63
2019-01-16T01:55:45.919Z,3.43
2019-01-16T01:58:19.655Z,3.17
2019-01-16T02:00:50.250Z,3.37
2019-01-16T02:03:37.080Z,3.20
2019-01-16T02:06:07.689Z,3.33
2019-01-16T02:08:40.950Z,3.20
2019-01-16T02:11:20.607Z,3.40
2019-01-16T02:14:00.054Z,3.83
2019-01-16T02:16:30.675Z,3.37
2019-01-16T02:19:04.286Z,3.23
2019-01-16T02:21:53.070Z,3.37
2019-01-16T02:24:26.682Z,3.40
2019-01-16T02:27:09.174Z,3.37
2019-01-16T02:29:55.785Z,3.30
2019-01-16T02:32:38.569Z,3.63
2019-01-16T02:35:24.146Z,3.40
2019-01-16T02:37:54.775Z,3.67
2019-01-16T02:40:31.150Z,4.27
2019-01-16T02:43:04.674Z,4.00
2019-01-16T02:45:41.600Z,3.90
2019-01-16T02:48:17.994Z,3.97
2019-01-16T02:51:00.662Z,3.83
2019-01-16T02:53:34.391Z,3.67
2019-01-16T02:56:05.227Z,3.90
2019-01-16T02:58:41.874Z,4.60
2019-01-16T03:01:18.156Z,3.90
2019-01-16T03:03:48.771Z,4.60
2019-01-16T03:06:35.442Z,4.17
2019-01-16T03:09:13.708Z,5.03
2019-01-16T03:11:50.433Z,4.83
2019-01-16T03:14:37.322Z,4.47
2019-01-16T03:17:07.938Z,4.37
2019-01-16T03:19:55.014Z,4.90
2019-01-16T03:22:25.627Z,4.67
2019-01-16T03:24:56.240Z,4.50
2019-01-16T03:27:44.671Z,4.67
2019-01-16T03:30:29.799Z,4.60
2019-01-16T03:33:06.476Z,4.47
2019-01-16T03:35:51.947Z,5.50
2019-01-16T03:38:24.954Z,5.37
2019-01-16T03:41:01.566Z,5.10
2019-01-16T03:43:38.215Z,5.37
2019-01-16T03:46:23.994Z,4.63
2019-01-16T03:49:13.227Z,4.83
2019-01-16T03:51:47.335Z,4.90
2019-01-16T03:54:17.954Z,4.50
2019-01-16T03:56:54.374Z,4.63
2019-01-16T03:59:42.970Z,4.70
2019-01-16T04:02:25.399Z,6.50
2019-01-16T04:04:58.578Z,5.27
2019-01-16T04:07:29.183Z,4.33
2019-01-16T04:10:11.450Z,5.07
2019-01-16T04:12:59.858Z,4.17
2019-01-16T04:15:39.097Z,4.47
2019-01-16T04:18:24.186Z,3.70
2019-01-16T04:20:57.737Z,3.97
2019-01-16T04:23:34.291Z,4.00
2019-01-16T04:26:13.531Z,4.23
2019-01-16T04:28:46.878Z,3.73
2019-01-16T04:31:17.498Z,4.10
2019-01-16T04:33:54.092Z,4.33
2019-01-16T04:36:40.970Z,3.53
2019-01-16T04:39:23.714Z,3.47
2019-01-16T04:41:56.978Z,3.83
2019-01-16T04:44:30.382Z,3.90
2019-01-16T04:47:06.481Z,3.60
2019-01-16T04:49:40.921Z,3.70
2019-01-16T04:52:23.415Z,3.50
2019-01-16T04:55:00.330Z,2.70
2019-01-16T04:57:47.090Z,3.50
2019-01-16T05:00:33.903Z,2.87
2019-01-16T05:03:13.531Z,3.20
2019-01-16T05:05:47.082Z,3.53
2019-01-16T05:08:17.689Z,3.40
2019-01-16T05:10:51.338Z,3.40
2019-01-16T05:13:30.774Z,3.87
2019-01-16T05:16:04.062Z,3.33
2019-01-16T05:18:34.716Z,3.07
2019-01-16T05:21:11.514Z,3.87
2019-01-16T05:23:48.175Z,3.57
2019-01-16T05:26:18.779Z,3.63
2019-01-16T05:29:05.507Z,3.57
2019-01-16T05:31:48.175Z,3.37
2019-01-16T05:34:37.014Z,3.20
2019-01-16T05:37:16.278Z,3.60
2019-01-16T05:39:46.890Z,3.53
2019-01-16T05:42:33.858Z,3.77
2019-01-16T05:45:20.992Z,3.30
2019-01-16T05:47:54.243Z,3.23
2019-01-16T05:50:27.546Z,3.17
2019-01-16T05:53:14.503Z,3.53
2019-01-16T05:55:53.983Z,3.00
2019-01-16T05:58:25.889Z,3.93
2019-01-16T06:01:13.463Z,3.67
2019-01-16T06:03:47.037Z,3.60
2019-01-16T06:06:17.640Z,3.87
2019-01-16T06:09:04.552Z,3.37
2019-01-16T06:11:51.530Z,3.60
2019-01-16T06:14:31.158Z,4.00
2019-01-16T06:17:18.190Z,3.73
2019-01-16T06:20:00.507Z,4.20
2019-01-16T06:22:47.810Z,4.03
2019-01-16T06:25:21.095Z,3.83
2019-01-16T06:28:00.729Z,5.70
2019-01-16T06:30:34.006Z,3.80
2019-01-16T06:33:10.632Z,4.10
2019-01-16T06:35:41.251Z,4.17
2019-01-16T06:38:11.854Z,4.33
2019-01-16T06:40:45.206Z,4.67
2019-01-16T06:43:21.761Z,4.00
2019-01-16T06:46:01.038Z,5.00
2019-01-16T06:48:34.067Z,4.70
2019-01-16T06:51:13.342Z,4.47
2019-01-16T06:54:01.991Z,4.90
2019-01-16T06:56:47.674Z,5.00
2019-01-16T06:59:27.222Z,5.03
2019-01-16T07:02:03.685Z,4.83
2019-01-16T07:04:37.127Z,4.60
2019-01-16T07:07:24.336Z,4.57
2019-01-16T07:10:12.874Z,4.63
2019-01-16T07:12:49.050Z,4.90
2019-01-16T07:15:31.529Z,4.90
2019-01-16T07:18:02.238Z,4.30
2019-01-16T07:20:38.583Z,5.20
2019-01-16T07:23:25.554Z,4.67
2019-01-16T07:26:01.911Z,4.57
2019-01-16T07:28:32.534Z,4.53
2019-01-16T07:31:18.339Z,4.23
2019-01-16T07:33:54.864Z,4.10
2019-01-16T07:36:41.682Z,4.23
2019-01-16T07:39:28.666Z,4.00
2019-01-16T07:42:11.218Z,3.80
2019-01-16T07:44:56.450Z,3.90
2019-01-16T07:47:27.068Z,3.67
2019-01-16T07:49:57.684Z,3.37
2019-01-16T07:52:43.146Z,3.57
2019-01-16T07:55:29.971Z,3.23
2019-01-16T07:58:09.302Z,3.20
2019-01-16T08:00:45.583Z,3.27
2019-01-16T08:03:22.086Z,3.30
2019-01-16T08:06:01.842Z,3.80
2019-01-16T08:08:35.478Z,4.07
2019-01-16T08:11:22.186Z,3.50
2019-01-16T08:14:08.831Z,3.37
2019-01-16T08:16:39.446Z,3.37
2019-01-16T08:19:16.024Z,3.80
2019-01-16T08:21:55.753Z,3.40
2019-01-16T08:24:44.441Z,3.57
2019-01-16T08:27:31.230Z,3.93
2019-01-16T08:30:04.789Z,3.50
2019-01-16T08:32:35.403Z,3.67
2019-01-16T08:35:12.902Z,3.53
2019-01-16T08:38:01.314Z,3.97
2019-01-16T08:40:37.858Z,4.13
2019-01-16T08:43:09.427Z,4.53
2019-01-16T08:45:56.087Z,4.00
2019-01-16T08:48:35.828Z,4.30
2019-01-16T08:51:22.899Z,4.40
2019-01-16T08:53:53.532Z,4.53
2019-01-16T08:56:24.154Z,4.80
2019-01-16T08:58:57.704Z,5.27
2019-01-16T09:01:32.518Z,5.37
2019-01-16T09:04:16.726Z,6.27
2019-01-16T09:06:50.022Z,6.00
2019-01-16T09:09:32.442Z,6.43
2019-01-16T09:12:05.914Z,6.40
2019-01-16T09:14:39.239Z,6.57
2019-01-16T09:17:09.853Z,6.67
2019-01-16T09:19:40.465Z,7.00
2019-01-16T09:22:11.098Z,7.20
2019-01-16T09:24:41.710Z,6.63
2019-01-16T09:27:18.214Z,7.67
2019-01-16T09:29:54.714Z,7.23
2019-01-16T09:32:42.562Z,6.70
2019-01-16T09:35:29.506Z,5.70
2019-01-16T09:38:00.130Z,5.87
2019-01-16T09:40:46.912Z,5.33
2019-01-16T09:43:33.966Z,5.20
2019-01-16T09:46:07.616Z,4.60
2019-01-16T09:48:53.266Z,4.53
2019-01-16T09:51:39.801Z,4.23
2019-01-16T09:54:10.543Z,5.63
2019-01-16T09:56:44.107Z,3.97
2019-01-16T09:59:17.630Z,4.23
2019-01-16T10:01:59.886Z,5.20
2019-01-16T10:04:30.514Z,3.80
2019-01-16T10:07:03.662Z,3.93
2019-01-16T10:09:37.014Z,4.07
2019-01-16T10:12:10.622Z,4.63
2019-01-16T10:14:56.134Z,4.20
2019-01-16T10:17:42.774Z,4.57
2019-01-16T10:20:16.122Z,4.43
2019-01-16T10:22:46.750Z,4.17
2019-01-16T10:25:29.603Z,4.40
2019-01-16T10:28:08.910Z,4.33
2019-01-16T10:30:55.646Z,4.70
2019-01-16T10:33:29.247Z,4.50
2019-01-16T10:36:02.655Z,4.47
2019-01-16T10:38:48.116Z,6.17
2019-01-16T10:41:33.538Z,5.90
2019-01-16T10:44:07.031Z,4.57
2019-01-16T10:46:43.141Z,4.90
2019-01-16T10:49:13.752Z,4.30
2019-01-16T10:51:50.074Z,4.13
2019-01-16T10:54:35.870Z,4.20
2019-01-16T10:57:22.866Z,4.47
2019-01-16T10:59:53.482Z,4.43
2019-01-16T11:02:26.874Z,4.77
2019-01-16T11:05:02.948Z,4.80
2019-01-16T11:07:33.572Z,4.40
2019-01-16T11:10:09.826Z,4.37
2019-01-16T11:12:56.850Z,4.20
2019-01-16T11:15:27.467Z,5.50
2019-01-16T11:18:04.099Z,4.53
2019-01-16T11:20:43.493Z,4.90
2019-01-16T11:23:22.887Z,5.17
2019-01-16T11:26:05.070Z,5.27
2019-01-16T11:28:47.806Z,5.13
2019-01-16T11:31:32.920Z,5.07
2019-01-16T11:34:06.348Z,5.60
2019-01-16T11:36:43.046Z,4.83
2019-01-16T11:39:13.667Z,5.23
2019-01-16T11:41:50.033Z,5.03
2019-01-16T11:44:23.571Z,4.80
2019-01-16T11:46:54.190Z,5.00
2019-01-16T11:49:33.582Z,4.77
2019-01-16T11:52:21.086Z,5.80
2019-01-16T11:54:54.435Z,5.60
2019-01-16T11:57:33.896Z,5.13
2019-01-16T12:00:04.594Z,5.47
2019-01-16T12:02:44.338Z,5.40
2019-01-16T12:05:31.218Z,5.60
2019-01-16T12:08:04.808Z,5.80
2019-01-16T12:10:35.419Z,5.60
2019-01-16T12:13:09.151Z,4.90
2019-01-16T12:15:45.662Z,5.27
2019-01-16T12:18:25.371Z,4.93
2019-01-16T12:21:10.780Z,4.63
2019-01-16T12:23:41.383Z,4.40
2019-01-16T12:26:11.991Z,4.40
2019-01-16T12:28:54.686Z,4.90
2019-01-16T12:31:28.050Z,5.40
2019-01-16T12:33:58.694Z,4.33
2019-01-16T12:36:38.362Z,4.80
2019-01-16T12:39:25.754Z,4.77
2019-01-16T12:41:59.777Z,4.47
2019-01-16T12:44:46.319Z,5.13
2019-01-16T12:47:25.867Z,4.20
2019-01-16T12:49:59.504Z,4.03
2019-01-16T12:52:33.010Z,4.63
2019-01-16T12:55:18.466Z,5.20
2019-01-16T12:57:54.911Z,4.73
2019-01-16T13:00:41.626Z,5.00
2019-01-16T13:03:17.656Z,4.67
2019-01-16T13:05:48.672Z,4.83
2019-01-16T13:08:35.618Z,4.00
2019-01-16T13:11:21.095Z,5.30
2019-01-16T13:13:51.698Z,5.20
2019-01-16T13:16:25.088Z,5.43
2019-01-16T13:19:13.529Z,4.53
2019-01-16T13:21:49.702Z,4.83
2019-01-16T13:24:35.192Z,4.60
2019-01-16T13:27:05.890Z,5.13
2019-01-16T13:29:48.757Z,4.10
2019-01-16T13:32:22.155Z,4.00
2019-01-16T13:35:07.590Z,3.83
2019-01-16T13:37:40.838Z,3.77
2019-01-16T13:40:18.803Z,3.43
2019-01-16T13:43:05.085Z,3.43
2019-01-16T13:45:47.502Z,3.60
2019-01-16T13:48:20.754Z,3.27
2019-01-16T13:50:57.147Z,3.40
2019-01-16T13:53:43.803Z,3.40
2019-01-16T13:56:30.350Z,2.97
2019-01-16T13:59:06.787Z,3.40
2019-01-16T14:01:40.394Z,3.77
2019-01-16T14:04:19.666Z,3.17
2019-01-16T14:06:50.285Z,3.00
2019-01-16T14:09:23.637Z,2.70
2019-01-16T14:12:02.942Z,2.90
2019-01-16T14:14:45.346Z,3.07
2019-01-16T14:17:15.954Z,3.13
2019-01-16T14:20:04.786Z,3.07
2019-01-16T14:22:44.326Z,3.93
2019-01-16T14:25:17.359Z,3.60
2019-01-16T14:27:50.608Z,3.60
2019-01-16T14:30:21.223Z,3.63
2019-01-16T14:32:51.822Z,3.33
2019-01-16T14:35:22.446Z,2.80
2019-01-16T14:37:58.873Z,3.47
2019-01-16T14:40:32.397Z,3.93
2019-01-16T14:43:11.994Z,3.43
2019-01-16T14:45:54.499Z,3.57
2019-01-16T14:48:41.451Z,3.90
2019-01-16T14:51:28.961Z,4.30
2019-01-16T14:54:05.514Z,4.00
2019-01-16T14:56:38.590Z,4.73
2019-01-16T14:59:11.602Z,3.40
2019-01-16T15:01:58.410Z,2.87
2019-01-16T15:04:35.078Z,3.10
2019-01-16T15:07:08.202Z,3.77
2019-01-16T15:09:55.106Z,3.40
2019-01-16T15:12:25.730Z,3.13
2019-01-16T15:14:59.123Z,3.83
2019-01-16T15:17:29.735Z,4.03
2019-01-16T15:20:03.104Z,3.10
2019-01-16T15:22:36.705Z,3.77
2019-01-16T15:25:07.802Z,3.70
2019-01-16T15:27:44.143Z,3.70
2019-01-16T15:30:24.674Z,3.40
2019-01-16T15:33:10.093Z,3.73
2019-01-16T15:35:58.319Z,3.80
2019-01-16T15:38:38.226Z,4.17
2019-01-16T15:41:20.994Z,3.73
2019-01-16T15:43:51.610Z,3.80
2019-01-16T15:46:24.958Z,4.23
2019-01-16T15:49:07.644Z,4.10
2019-01-16T15:51:39.055Z,3.47
2019-01-16T15:54:12.414Z,4.13
2019-01-16T15:56:58.153Z,4.43
2019-01-16T15:59:28.750Z,4.47
2019-01-16T16:02:15.900Z,4.63
2019-01-16T16:04:49.341Z,4.97
2019-01-16T16:07:19.962Z,5.27
2019-01-16T16:09:50.570Z,4.97
2019-01-16T16:12:23.834Z,5.80
2019-01-16T16:14:57.206Z,4.90
2019-01-16T16:17:33.483Z,5.20
2019-01-16T16:20:07.095Z,5.50
2019-01-16T16:22:53.795Z,6.13
2019-01-16T16:25:24.403Z,5.27
2019-01-16T16:27:57.767Z,5.20
2019-01-16T16:30:31.127Z,5.30
2019-01-16T16:35:40.883Z,5.93
2019-01-16T17:23:34.092Z,6.30
2019-01-16T17:26:14.826Z,7.00
2019-01-16T17:29:15.028Z,6.57
